createdAt,value
2018-07-24T00:00:32.503Z,60.72
2018-07-24T00:03:01.649Z,60.66
2018-07-24T00:05:30.724Z,60.96
2018-07-24T00:07:59.852Z,61.46
2018-07-24T00:10:28.912Z,61.80
2018-07-24T00:12:58.073Z,62.18
2018-07-24T00:15:27.140Z,62.26
2018-07-24T00:17:56.292Z,62.51
2018-07-24T00:20:25.403Z,62.13
2018-07-24T00:22:54.527Z,62.25
2018-07-24T00:25:23.619Z,62.68
2018-07-24T00:27:52.724Z,62.75
2018-07-24T00:30:21.836Z,63.03
2018-07-24T00:32:50.935Z,63.13
2018-07-24T00:35:20.035Z,63.52
2018-07-24T00:37:49.131Z,64.50
2018-07-24T00:40:18.244Z,64.81
2018-07-24T00:42:47.308Z,64.19
2018-07-24T00:45:16.407Z,64.30
2018-07-24T00:47:45.482Z,64.01
2018-07-24T00:50:14.566Z,63.81
2018-07-24T00:52:43.628Z,63.16
2018-07-24T00:55:12.757Z,62.84
2018-07-24T00:57:41.812Z,62.02
2018-07-24T01:00:10.924Z,62.45
2018-07-24T01:02:40.012Z,62.30
2018-07-24T01:05:09.104Z,62.60
2018-07-24T01:07:39.075Z,62.74
2018-07-24T01:10:09.668Z,63.01
2018-07-24T01:12:38.759Z,63.50
2018-07-24T01:15:08.161Z,63.52
2018-07-24T01:17:37.252Z,63.57
2018-07-24T01:20:06.412Z,63.77
2018-07-24T01:22:35.487Z,63.93
2018-07-24T01:25:04.637Z,63.54
2018-07-24T01:27:33.744Z,63.20
2018-07-24T01:30:02.877Z,62.73
2018-07-24T01:32:31.955Z,62.05
2018-07-24T01:35:01.089Z,62.19
2018-07-24T01:37:30.155Z,62.21
2018-07-24T01:39:59.236Z,62.51
2018-07-24T01:42:28.348Z,62.69
2018-07-24T01:44:57.460Z,62.61
2018-07-24T01:47:26.552Z,62.98
2018-07-24T01:49:55.628Z,62.76
2018-07-24T01:52:24.781Z,62.48
2018-07-24T01:54:53.849Z,62.65
2018-07-24T01:57:22.964Z,63.24
2018-07-24T01:59:52.025Z,63.22
2018-07-24T02:02:21.132Z,63.69
2018-07-24T02:04:50.229Z,63.88
2018-07-24T02:07:19.332Z,63.90
2018-07-24T02:09:48.476Z,63.75
2018-07-24T02:12:17.559Z,63.22
2018-07-24T02:14:46.660Z,63.68
2018-07-24T02:17:15.748Z,63.45
2018-07-24T02:19:44.825Z,62.88
2018-07-24T02:22:13.916Z,62.81
2018-07-24T02:24:42.999Z,62.82
2018-07-24T02:27:12.084Z,62.90
2018-07-24T02:29:41.148Z,63.31
2018-07-24T02:32:11.220Z,63.60
2018-07-24T02:34:40.309Z,63.30
2018-07-24T02:37:09.875Z,63.39
2018-07-24T02:39:38.920Z,63.04
2018-07-24T02:42:08.008Z,63.38
2018-07-24T02:44:37.080Z,63.31
2018-07-24T02:47:06.280Z,64.23
2018-07-24T02:49:35.343Z,64.76
2018-07-24T02:52:04.424Z,65.62
2018-07-24T02:54:33.496Z,65.21
2018-07-24T02:57:02.592Z,65.52
2018-07-24T02:59:31.656Z,65.48
2018-07-24T03:02:00.939Z,65.37
2018-07-24T03:04:30.056Z,65.31
2018-07-24T03:06:59.124Z,65.07
2018-07-24T03:09:28.235Z,65.16
2018-07-24T03:11:57.328Z,65.44
2018-07-24T03:14:26.418Z,65.40
2018-07-24T03:16:55.488Z,65.78
2018-07-24T03:19:24.581Z,65.77
2018-07-24T03:21:53.648Z,66.30
2018-07-24T03:24:22.745Z,66.42
2018-07-24T03:26:51.821Z,66.11
2018-07-24T03:29:20.947Z,65.94
2018-07-24T03:31:50.045Z,65.94
2018-07-24T03:34:19.152Z,66.29
2018-07-24T03:36:48.230Z,66.59
2018-07-24T03:39:17.337Z,66.46
2018-07-24T03:41:46.412Z,66.78
2018-07-24T03:44:15.512Z,67.30
2018-07-24T03:46:44.584Z,66.99
2018-07-24T03:49:13.712Z,66.64
2018-07-24T03:51:42.784Z,66.91
2018-07-24T03:54:11.872Z,67.49
2018-07-24T03:56:40.961Z,67.42
2018-07-24T03:59:10.081Z,67.89
2018-07-24T04:01:39.157Z,67.66
2018-07-24T04:04:08.277Z,67.74
2018-07-24T04:06:37.364Z,68.14
2018-07-24T04:09:08.125Z,68.62
2018-07-24T04:11:37.340Z,68.26
2018-07-24T04:14:06.416Z,68.82
2018-07-24T04:16:35.616Z,67.94
2018-07-24T04:19:04.744Z,68.88
2018-07-24T04:21:33.893Z,67.92
2018-07-24T04:24:02.968Z,68.05
2018-07-24T04:26:32.073Z,67.60
2018-07-24T04:29:01.196Z,67.40
2018-07-24T04:31:30.300Z,67.06
2018-07-24T04:33:59.420Z,66.29
2018-07-24T04:36:28.568Z,66.77
2018-07-24T04:38:57.657Z,66.58
2018-07-24T04:41:26.773Z,66.32
2018-07-24T04:43:55.855Z,66.08
2018-07-24T04:46:24.956Z,66.05
2018-07-24T04:48:54.076Z,65.38
2018-07-24T04:51:23.200Z,65.79
2018-07-24T04:53:52.301Z,66.16
2018-07-24T04:56:21.393Z,65.54
2018-07-24T04:58:50.504Z,65.54
2018-07-24T05:01:19.632Z,65.31
2018-07-24T05:03:48.770Z,64.71
2018-07-24T05:06:17.871Z,65.22
2018-07-24T05:08:46.972Z,64.85
2018-07-24T05:11:16.061Z,65.14
2018-07-24T05:13:45.172Z,64.74
2018-07-24T05:16:14.269Z,64.39
2018-07-24T05:18:43.388Z,64.43
2018-07-24T05:21:12.567Z,63.58
2018-07-24T05:23:41.758Z,63.78
2018-07-24T05:26:10.792Z,63.37
2018-07-24T05:28:39.924Z,63.35
2018-07-24T05:31:09.005Z,63.93
2018-07-24T05:33:38.108Z,62.79
2018-07-24T05:36:07.210Z,62.81
2018-07-24T05:38:36.348Z,62.14
2018-07-24T05:41:05.456Z,62.21
2018-07-24T05:43:34.563Z,62.00
2018-07-24T05:46:03.664Z,61.50
2018-07-24T05:48:32.859Z,61.97
2018-07-24T05:51:01.925Z,61.65
2018-07-24T05:53:31.024Z,61.31
2018-07-24T05:56:00.232Z,60.26
2018-07-24T05:58:29.336Z,60.59
2018-07-24T06:00:58.502Z,58.66
2018-07-24T06:03:29.443Z,58.65
2018-07-24T06:05:58.625Z,58.77
2018-07-24T06:08:27.812Z,58.09
2018-07-24T06:10:56.905Z,57.74
2018-07-24T06:13:26.004Z,57.66
2018-07-24T06:15:55.173Z,57.25
2018-07-24T06:18:24.244Z,56.50
2018-07-24T06:20:53.353Z,55.78
2018-07-24T06:23:22.452Z,55.28
2018-07-24T06:25:51.543Z,54.48
2018-07-24T06:28:20.616Z,53.95
2018-07-24T06:30:49.704Z,53.40
2018-07-24T06:33:18.788Z,52.53
2018-07-24T06:35:47.896Z,52.62
2018-07-24T06:38:16.977Z,51.48
2018-07-24T06:40:46.088Z,50.85
2018-07-24T06:43:15.168Z,50.56
2018-07-24T06:45:44.240Z,50.24
2018-07-24T06:48:13.340Z,50.68
2018-07-24T06:50:42.412Z,50.87
2018-07-24T06:53:11.552Z,50.56
2018-07-24T06:55:40.628Z,50.08
2018-07-24T06:58:09.743Z,49.50
2018-07-24T07:00:38.821Z,49.27
2018-07-24T07:03:07.960Z,48.81
2018-07-24T07:05:37.021Z,49.49
2018-07-24T07:08:06.132Z,47.46
2018-07-24T07:10:35.239Z,48.08
2018-07-24T07:13:04.358Z,48.82
2018-07-24T07:15:33.427Z,48.27
2018-07-24T07:18:02.524Z,48.06
2018-07-24T07:20:31.648Z,47.19
2018-07-24T07:23:00.788Z,46.86
2018-07-24T07:25:29.996Z,45.90
2018-07-24T07:27:59.128Z,45.84
2018-07-24T07:30:28.243Z,45.25
2018-07-24T07:32:57.336Z,43.81
2018-07-24T07:35:26.413Z,44.79
2018-07-24T07:37:55.524Z,44.30
2018-07-24T07:40:24.605Z,43.61
2018-07-24T07:42:54.596Z,44.13
2018-07-24T07:45:24.703Z,43.54
2018-07-24T07:47:53.794Z,43.20
2018-07-24T07:50:22.863Z,42.80
2018-07-24T07:52:51.946Z,42.28
2018-07-24T07:55:21.060Z,42.51
2018-07-24T07:57:50.149Z,41.63
2018-07-24T08:00:19.288Z,41.50
2018-07-24T08:02:48.415Z,41.65
2018-07-24T08:05:17.496Z,40.84
2018-07-24T08:07:46.575Z,40.92
2018-07-24T08:10:15.685Z,40.70
2018-07-24T08:12:44.763Z,40.10
2018-07-24T08:15:13.852Z,39.52
2018-07-24T08:17:42.949Z,39.45
2018-07-24T08:20:12.105Z,37.73
2018-07-24T08:22:41.207Z,39.29
2018-07-24T08:25:10.301Z,37.75
2018-07-24T08:27:39.372Z,38.70
2018-07-24T08:30:08.496Z,38.29
2018-07-24T08:32:37.623Z,37.35
2018-07-24T08:35:06.730Z,36.90
2018-07-24T08:37:35.819Z,38.30
2018-07-24T08:40:05.263Z,38.55
2018-07-24T08:42:34.332Z,38.03
2018-07-24T08:45:04.017Z,38.85
2018-07-24T08:47:33.265Z,38.24
2018-07-24T08:50:03.033Z,40.27
2018-07-24T08:52:32.176Z,40.08
2018-07-24T08:55:01.537Z,37.82
2018-07-24T08:57:30.428Z,39.13
2018-07-24T08:59:59.526Z,37.90
2018-07-24T09:02:28.629Z,37.30
2018-07-24T09:04:57.869Z,37.92
2018-07-24T09:07:26.980Z,35.47
2018-07-24T09:09:58.143Z,35.75
2018-07-24T09:12:27.600Z,35.90
2018-07-24T09:14:56.684Z,36.31
2018-07-24T09:17:25.800Z,35.19
2018-07-24T09:19:54.868Z,34.98
2018-07-24T09:22:23.968Z,35.03
2018-07-24T09:24:53.033Z,35.43
2018-07-24T09:27:22.171Z,35.34
2018-07-24T09:29:51.333Z,36.09
2018-07-24T09:32:20.412Z,36.61
2018-07-24T09:34:50.213Z,35.62
2018-07-24T09:37:19.344Z,37.76
2018-07-24T09:39:48.420Z,36.66
2018-07-24T09:42:17.560Z,34.45
2018-07-24T09:44:46.657Z,33.84
2018-07-24T09:47:15.842Z,34.82
2018-07-24T09:49:44.985Z,35.22
2018-07-24T09:52:21.168Z,34.01
2018-07-24T09:54:50.425Z,34.43
2018-07-24T09:57:19.639Z,34.12
2018-07-24T09:59:48.764Z,34.74
2018-07-24T10:02:17.964Z,34.05
2018-07-24T10:04:47.081Z,36.58
2018-07-24T10:07:16.157Z,35.46
2018-07-24T10:09:45.254Z,35.04
2018-07-24T10:12:14.414Z,33.47
2018-07-24T10:14:43.524Z,32.85
2018-07-24T10:17:12.609Z,33.70
2018-07-24T10:19:41.696Z,32.36
2018-07-24T10:22:10.842Z,32.59
2018-07-24T10:24:40.233Z,32.77
2018-07-24T10:27:09.369Z,32.03
2018-07-24T10:29:38.472Z,32.99
2018-07-24T10:32:07.557Z,31.99
2018-07-24T10:34:36.796Z,33.31
2018-07-24T10:37:06.471Z,33.09
2018-07-24T10:39:35.585Z,34.15
2018-07-24T10:42:04.661Z,32.63
2018-07-24T10:44:33.755Z,33.26
2018-07-24T10:47:02.860Z,33.43
2018-07-24T10:49:31.965Z,32.81
2018-07-24T10:52:01.092Z,33.34
2018-07-24T10:54:30.189Z,32.68
2018-07-24T10:56:59.305Z,32.71
2018-07-24T10:59:28.413Z,33.29
2018-07-24T11:01:57.524Z,33.34
2018-07-24T11:04:26.668Z,32.50
2018-07-24T11:06:56.125Z,32.18
2018-07-24T11:09:25.230Z,33.39
2018-07-24T11:11:54.552Z,33.09
2018-07-24T11:14:23.730Z,32.79
2018-07-24T11:16:53.013Z,32.09
2018-07-24T11:19:22.440Z,32.88
2018-07-24T11:21:51.558Z,32.67
2018-07-24T11:24:20.761Z,33.85
2018-07-24T11:26:49.884Z,32.82
2018-07-24T11:29:19.029Z,31.69
2018-07-24T11:31:48.233Z,31.07
2018-07-24T11:34:17.343Z,31.10
2018-07-24T11:36:46.506Z,31.20
2018-07-24T11:39:15.616Z,31.81
2018-07-24T11:41:44.938Z,31.28
2018-07-24T11:44:14.018Z,31.85
2018-07-24T11:46:43.132Z,31.09
2018-07-24T11:49:12.217Z,31.75
2018-07-24T11:51:41.531Z,30.76
2018-07-24T11:54:10.571Z,31.29
2018-07-24T11:56:39.704Z,31.37
2018-07-24T11:59:08.777Z,30.63
2018-07-24T12:01:37.888Z,31.33
2018-07-24T12:04:06.981Z,31.29
2018-07-24T12:06:36.077Z,31.68
2018-07-24T12:09:09.056Z,32.07
2018-07-24T12:11:39.119Z,31.92
2018-07-24T12:14:08.616Z,31.62
2018-07-24T12:16:37.753Z,30.97
2018-07-24T12:19:06.836Z,31.84
2018-07-24T12:21:36.004Z,30.93
2018-07-24T12:24:05.080Z,31.04
2018-07-24T12:26:34.171Z,30.81
2018-07-24T12:29:03.276Z,31.05
2018-07-24T12:31:32.381Z,30.62
2018-07-24T12:34:01.452Z,31.38
2018-07-24T12:36:30.553Z,30.29
2018-07-24T12:38:59.646Z,30.33
2018-07-24T12:41:28.744Z,30.44
2018-07-24T12:43:57.837Z,29.99
2018-07-24T12:46:26.909Z,30.00
2018-07-24T12:48:56.013Z,29.76
2018-07-24T12:51:25.129Z,30.21
2018-07-24T12:53:54.237Z,29.69
2018-07-24T12:56:23.328Z,29.48
2018-07-24T12:58:52.460Z,30.70
2018-07-24T13:01:21.557Z,29.55
2018-07-24T13:03:50.671Z,30.36
2018-07-24T13:06:19.744Z,29.87
2018-07-24T13:08:48.860Z,29.31
2018-07-24T13:11:17.988Z,30.03
2018-07-24T13:13:47.740Z,30.47
2018-07-24T13:16:16.828Z,29.33
2018-07-24T13:18:45.937Z,29.12
2018-07-24T13:21:15.028Z,29.48
2018-07-24T13:23:44.130Z,30.04
2018-07-24T13:26:13.190Z,29.52
2018-07-24T13:28:42.312Z,29.48
2018-07-24T13:31:11.404Z,29.30
2018-07-24T13:33:40.492Z,29.41
2018-07-24T13:36:09.569Z,28.86
2018-07-24T13:38:38.868Z,29.89
2018-07-24T13:41:07.992Z,30.62
2018-07-24T13:43:37.081Z,29.23
2018-07-24T13:46:06.177Z,29.03
2018-07-24T13:48:35.281Z,28.79
2018-07-24T13:51:04.365Z,29.46
2018-07-24T13:53:33.487Z,28.74
2018-07-24T13:56:02.551Z,28.90
2018-07-24T13:58:31.719Z,29.69
2018-07-24T14:01:01.239Z,30.65
2018-07-24T14:03:31.000Z,30.71
2018-07-24T14:06:00.939Z,30.12
2018-07-24T14:08:30.145Z,30.74
2018-07-24T14:10:59.168Z,30.46
2018-07-24T14:13:28.245Z,29.12
2018-07-24T14:15:57.372Z,29.82
2018-07-24T14:18:26.576Z,28.67
2018-07-24T14:20:55.712Z,28.55
2018-07-24T14:23:24.804Z,28.64
2018-07-24T14:25:53.904Z,28.74
2018-07-24T14:28:23.048Z,28.13
2018-07-24T14:30:52.141Z,28.03
2018-07-24T14:33:21.216Z,28.62
2018-07-24T14:35:50.332Z,28.78
2018-07-24T14:38:19.511Z,28.10
2018-07-24T14:40:48.622Z,28.10
2018-07-24T14:43:17.801Z,28.35
2018-07-24T14:45:46.916Z,28.69
2018-07-24T14:48:16.001Z,28.18
2018-07-24T14:50:45.214Z,28.17
2018-07-24T14:53:14.512Z,28.02
2018-07-24T14:55:43.768Z,28.14
2018-07-24T14:58:12.832Z,29.32
2018-07-24T15:00:41.985Z,27.73
2018-07-24T15:03:11.164Z,28.15
2018-07-24T15:05:40.277Z,28.39
2018-07-24T15:08:09.372Z,28.62
2018-07-24T15:10:38.496Z,28.43
2018-07-24T15:13:07.637Z,28.37
2018-07-24T15:15:36.785Z,28.65
2018-07-24T15:18:06.045Z,28.19
2018-07-24T15:20:35.153Z,28.14
2018-07-24T15:23:04.452Z,28.01
2018-07-24T15:25:33.671Z,28.49
2018-07-24T15:28:02.856Z,29.00
2018-07-24T15:30:32.217Z,28.21
2018-07-24T15:33:01.423Z,28.01
2018-07-24T15:35:30.544Z,28.29
2018-07-24T15:37:59.732Z,28.13
2018-07-24T15:40:28.796Z,29.01
2018-07-24T15:42:57.897Z,28.63
2018-07-24T15:45:26.995Z,28.02
2018-07-24T15:47:56.092Z,28.98
2018-07-24T15:50:25.172Z,29.20
2018-07-24T15:52:54.273Z,28.71
2018-07-24T15:55:23.372Z,28.61
2018-07-24T15:57:52.536Z,28.21
2018-07-24T16:00:21.559Z,28.63
2018-07-24T16:02:50.668Z,27.72
2018-07-24T16:05:19.780Z,27.58
2018-07-24T16:07:48.860Z,28.42
2018-07-24T16:10:17.952Z,28.33
2018-07-24T16:12:47.068Z,28.17
2018-07-24T16:15:16.174Z,27.64
2018-07-24T16:17:45.272Z,27.73
2018-07-24T16:20:14.379Z,27.61
2018-07-24T16:22:43.509Z,28.09
2018-07-24T16:25:12.604Z,27.77
2018-07-24T16:27:41.696Z,27.54
2018-07-24T16:30:10.768Z,27.85
2018-07-24T16:32:39.892Z,27.86
2018-07-24T16:35:08.960Z,28.19
2018-07-24T16:37:38.031Z,27.66
2018-07-24T16:40:07.138Z,27.92
2018-07-24T16:42:36.211Z,28.04
2018-07-24T16:45:05.506Z,28.04
2018-07-24T16:47:34.589Z,28.46
2018-07-24T16:50:03.711Z,28.53
2018-07-24T16:52:32.816Z,28.75
2018-07-24T16:55:02.058Z,28.31
2018-07-24T16:57:31.132Z,29.08
2018-07-24T17:00:00.225Z,28.61
2018-07-24T17:02:29.321Z,28.72
2018-07-24T17:04:58.779Z,29.00
2018-07-24T17:07:27.857Z,28.53
2018-07-24T17:09:56.949Z,28.81
2018-07-24T17:12:26.079Z,28.26
2018-07-24T17:14:55.208Z,28.54
2018-07-24T17:17:24.313Z,28.63
2018-07-24T17:19:53.575Z,28.86
2018-07-24T17:22:22.567Z,28.64
2018-07-24T17:24:51.676Z,28.61
2018-07-24T17:27:20.785Z,28.48
2018-07-24T17:29:49.868Z,28.94
2018-07-24T17:32:19.808Z,29.04
2018-07-24T17:34:48.903Z,29.12
2018-07-24T17:37:17.985Z,28.60
2018-07-24T17:39:47.108Z,28.49
2018-07-24T17:42:16.181Z,29.03
2018-07-24T17:44:45.305Z,29.77
2018-07-24T17:47:15.192Z,29.45
2018-07-24T17:49:44.268Z,28.97
2018-07-24T17:52:13.376Z,29.27
2018-07-24T17:54:42.440Z,28.84
2018-07-24T17:57:11.536Z,29.58
2018-07-24T17:59:40.600Z,29.32
2018-07-24T18:02:10.000Z,29.33
2018-07-24T18:04:39.124Z,30.22
2018-07-24T18:07:08.294Z,30.12
2018-07-24T18:09:37.364Z,30.16
2018-07-24T18:12:06.555Z,30.26
2018-07-24T18:14:35.640Z,29.82
2018-07-24T18:17:04.753Z,30.09
2018-07-24T18:19:33.924Z,30.30
2018-07-24T18:22:03.028Z,30.87
2018-07-24T18:24:32.140Z,31.61
2018-07-24T18:27:01.228Z,30.59
2018-07-24T18:29:30.348Z,30.90
2018-07-24T18:31:59.475Z,31.18
2018-07-24T18:34:29.356Z,30.28
2018-07-24T18:36:58.453Z,31.29
2018-07-24T18:39:27.534Z,31.21
2018-07-24T18:41:56.643Z,31.09
2018-07-24T18:44:25.981Z,31.52
2018-07-24T18:46:55.365Z,31.64
2018-07-24T18:49:24.383Z,30.97
2018-07-24T18:51:53.485Z,31.14
2018-07-24T18:54:22.588Z,30.85
2018-07-24T18:56:51.671Z,31.22
2018-07-24T18:59:20.744Z,31.53
2018-07-24T19:01:49.852Z,31.72
2018-07-24T19:04:18.943Z,32.09
2018-07-24T19:06:48.032Z,31.86
2018-07-24T19:09:17.119Z,32.16
2018-07-24T19:11:46.228Z,31.87
2018-07-24T19:14:15.304Z,32.22
2018-07-24T19:16:44.392Z,33.24
2018-07-24T19:19:13.505Z,34.16
2018-07-24T19:21:42.588Z,33.71
2018-07-24T19:24:11.816Z,34.56
2018-07-24T19:26:40.970Z,35.40
2018-07-24T19:29:11.697Z,35.48
2018-07-24T19:31:59.500Z,36.56
2018-07-24T19:34:28.612Z,36.93
2018-07-24T19:36:57.800Z,37.63
2018-07-24T19:39:26.936Z,37.42
2018-07-24T19:41:56.112Z,37.43
2018-07-24T19:44:25.271Z,38.56
2018-07-24T19:46:54.414Z,37.63
2018-07-24T19:49:23.581Z,38.24
2018-07-24T19:51:52.640Z,39.57
2018-07-24T19:54:21.740Z,39.66
2018-07-24T19:56:50.885Z,39.15
2018-07-24T19:59:20.492Z,38.86
2018-07-24T20:01:49.995Z,39.37
2018-07-24T20:04:19.207Z,40.14
2018-07-24T20:06:48.296Z,39.19
2018-07-24T20:09:17.496Z,40.16
2018-07-24T20:11:47.431Z,41.07
2018-07-24T20:14:16.613Z,39.97
2018-07-24T20:16:45.703Z,39.12
2018-07-24T20:19:14.940Z,39.49
2018-07-24T20:21:44.017Z,39.46
2018-07-24T20:24:13.120Z,38.64
2018-07-24T20:26:42.262Z,39.41
2018-07-24T20:29:11.395Z,39.37
2018-07-24T20:31:40.487Z,38.70
2018-07-24T20:34:09.593Z,38.30
2018-07-24T20:36:38.696Z,39.09
2018-07-24T20:39:09.969Z,40.14
2018-07-24T20:41:39.123Z,40.86
2018-07-24T20:44:08.516Z,42.19
2018-07-24T20:46:37.637Z,42.98
2018-07-24T20:49:06.744Z,42.67
2018-07-24T20:51:35.840Z,43.26
2018-07-24T20:54:05.936Z,43.69
2018-07-24T20:56:35.084Z,44.30
2018-07-24T20:59:04.128Z,44.83
2018-07-24T21:01:33.329Z,44.71
2018-07-24T21:04:02.436Z,44.18
2018-07-24T21:06:31.553Z,44.66
2018-07-24T21:09:00.620Z,44.56
2018-07-24T21:11:29.787Z,45.27
2018-07-24T21:13:58.865Z,44.09
2018-07-24T21:16:28.010Z,44.81
2018-07-24T21:18:57.080Z,43.97
2018-07-24T21:21:26.177Z,44.95
2018-07-24T21:23:55.272Z,45.27
2018-07-24T21:26:24.388Z,44.53
2018-07-24T21:28:53.464Z,44.82
2018-07-24T21:31:22.608Z,44.98
2018-07-24T21:33:51.674Z,45.75
2018-07-24T21:36:20.844Z,46.20
2018-07-24T21:38:49.936Z,45.79
2018-07-24T21:41:19.024Z,45.78
2018-07-24T21:43:48.136Z,45.92
2018-07-24T21:46:17.260Z,46.23
2018-07-24T21:48:46.394Z,46.55
2018-07-24T21:51:15.436Z,46.87
2018-07-24T21:53:44.527Z,47.20
2018-07-24T21:56:13.614Z,48.30
2018-07-24T21:58:42.680Z,47.95
2018-07-24T22:01:12.287Z,49.01
2018-07-24T22:03:41.540Z,48.79
2018-07-24T22:06:10.961Z,48.39
2018-07-24T22:08:40.166Z,48.84
2018-07-24T22:11:09.184Z,49.64
2018-07-24T22:13:38.260Z,50.06
2018-07-24T22:16:07.349Z,49.89
2018-07-24T22:18:36.415Z,50.51
2018-07-24T22:21:05.500Z,49.93
2018-07-24T22:23:34.577Z,49.13
2018-07-24T22:26:03.666Z,49.44
2018-07-24T22:28:32.799Z,49.62
2018-07-24T22:31:01.900Z,49.44
2018-07-24T22:33:30.984Z,50.39
2018-07-24T22:36:00.072Z,50.58
2018-07-24T22:38:29.168Z,49.78
2018-07-24T22:40:58.287Z,49.47
2018-07-24T22:43:27.360Z,49.21
2018-07-24T22:45:56.444Z,49.29
2018-07-24T22:48:25.532Z,48.93
2018-07-24T22:50:54.611Z,50.31
2018-07-24T22:53:23.716Z,51.23
2018-07-24T22:55:52.781Z,51.45
2018-07-24T22:58:21.880Z,51.22
2018-07-24T23:00:50.961Z,51.26
2018-07-24T23:03:20.072Z,50.96
2018-07-24T23:05:49.144Z,50.41
2018-07-24T23:08:18.245Z,50.32
2018-07-24T23:10:47.328Z,51.26
2018-07-24T23:13:16.408Z,50.97
2018-07-24T23:15:45.476Z,50.53
2018-07-24T23:18:14.556Z,50.77
2018-07-24T23:20:43.624Z,51.37
2018-07-24T23:23:12.736Z,50.90
2018-07-24T23:25:41.804Z,51.95
2018-07-24T23:28:10.919Z,51.88
2018-07-24T23:30:40.044Z,51.67
2018-07-24T23:33:09.166Z,52.14
2018-07-24T23:35:38.266Z,52.67
2018-07-24T23:38:07.644Z,52.84
2018-07-24T23:40:36.752Z,53.25
2018-07-24T23:43:05.863Z,53.51
2018-07-24T23:45:34.964Z,53.64
2018-07-24T23:48:04.053Z,52.86
2018-07-24T23:50:33.120Z,53.16
2018-07-24T23:53:02.213Z,53.64
2018-07-24T23:55:34.376Z,52.58
2018-07-24T23:58:04.452Z,53.28
